AAR221T LFBO-LFPG
Flight info
| Callsign | AAR221T |
|---|---|
| Flight time | 1h 3m |
| Altitude | 34000 |
| Route | FISTO DCT POI DCT PEPAX UT182 KEPER |
| Aircraft | A359/H-SDE2E3GHIJ3J4J5LM1ORWXY/LB1D1 |
Departure
| Time | 2026-05-07 20:29 |
|---|---|
| Airport | Toulouse-Blagnac Airport (LFBO) |
Arrival
| Time | 2026-05-07 21:32 |
|---|---|
| Airport | Charles de Gaulle International Airport (LFPG) |
| Time | Latitude | Longitude | Altitude | Speed | Heading |
|---|---|---|---|---|---|
| 2026-05-07 20:02 | 43.63192 | 1.35219 | 500 ft | 0 kts | 233° |
| 2026-05-07 20:18 | 43.63192 | 1.35220 | 500 ft | 0 kts | 233° |
| 2026-05-07 20:18 | 43.63200 | 1.35235 | 500 ft | 3 kts | 233° |
| 2026-05-07 20:18 | 43.63212 | 1.35257 | 500 ft | 3 kts | 233° |
| 2026-05-07 20:19 | 43.63224 | 1.35279 | 500 ft | 3 kts | 223° |
| 2026-05-07 20:19 | 43.63239 | 1.35294 | 500 ft | 3 kts | 192° |
| 2026-05-07 20:19 | 43.63256 | 1.35294 | 500 ft | 2 kts | 149° |
| 2026-05-07 20:19 | 43.63265 | 1.35285 | 500 ft | 2 kts | 143° |
| 2026-05-07 20:20 | 43.63281 | 1.35269 | 500 ft | 2 kts | 143° |
| 2026-05-07 20:20 | 43.63287 | 1.35263 | 500 ft | 2 kts | 143° |
| 2026-05-07 20:22 | 43.63286 | 1.35263 | 500 ft | 1 kts | 143° |
| 2026-05-07 20:22 | 43.63258 | 1.35293 | 500 ft | 8 kts | 143° |
| 2026-05-07 20:23 | 43.63202 | 1.35351 | 500 ft | 12 kts | 143° |
| 2026-05-07 20:23 | 43.63132 | 1.35423 | 500 ft | 13 kts | 143° |
| 2026-05-07 20:23 | 43.63059 | 1.35473 | 500 ft | 12 kts | 166° |
| 2026-05-07 20:23 | 43.62997 | 1.35492 | 500 ft | 9 kts | 158° |
| 2026-05-07 20:24 | 43.62968 | 1.35573 | 500 ft | 11 kts | 90° |
| 2026-05-07 20:24 | 43.62976 | 1.35693 | 500 ft | 14 kts | 87° |
| 2026-05-07 20:24 | 43.62948 | 1.35805 | 500 ft | 14 kts | 139° |
| 2026-05-07 20:24 | 43.62864 | 1.35894 | 500 ft | 17 kts | 143° |
| 2026-05-07 20:25 | 43.62766 | 1.35994 | 500 ft | 19 kts | 143° |
| 2026-05-07 20:25 | 43.62654 | 1.36110 | 500 ft | 21 kts | 143° |
| 2026-05-07 20:25 | 43.62530 | 1.36238 | 500 ft | 23 kts | 143° |
| 2026-05-07 20:25 | 43.62396 | 1.36377 | 500 ft | 25 kts | 143° |
| 2026-05-07 20:26 | 43.62252 | 1.36526 | 500 ft | 26 kts | 143° |
| 2026-05-07 20:26 | 43.62130 | 1.36654 | 500 ft | 20 kts | 143° |
| 2026-05-07 20:26 | 43.62027 | 1.36760 | 500 ft | 17 kts | 143° |
| 2026-05-07 20:26 | 43.61926 | 1.36865 | 500 ft | 18 kts | 143° |
| 2026-05-07 20:27 | 43.61846 | 1.36953 | 500 ft | 14 kts | 133° |
| 2026-05-07 20:27 | 43.61833 | 1.37060 | 500 ft | 13 kts | 70° |
| 2026-05-07 20:27 | 43.61882 | 1.37157 | 500 ft | 11 kts | 50° |
| 2026-05-07 20:27 | 43.61942 | 1.37157 | 500 ft | 10 kts | 327° |
| 2026-05-07 20:28 | 43.61956 | 1.37142 | 500 ft | 0 kts | 324° |
| 2026-05-07 20:28 | 43.61960 | 1.37139 | 500 ft | 6 kts | 324° |
| 2026-05-07 20:28 | 43.62201 | 1.36891 | 500 ft | 82 kts | 323° |
| 2026-05-07 20:28 | 43.62850 | 1.36219 | 500 ft | 148 kts | 323° |
| 2026-05-07 20:29 | 43.63786 | 1.35273 | 884 ft | 171 kts | 323° |
| 2026-05-07 20:29 | 43.64741 | 1.34323 | 1771 ft | 168 kts | 322° |
| 2026-05-07 20:29 | 43.65705 | 1.33357 | 2320 ft | 177 kts | 322° |
| 2026-05-07 20:29 | 43.66725 | 1.32347 | 2773 ft | 188 kts | 323° |
| 2026-05-07 20:30 | 43.67812 | 1.31227 | 3157 ft | 202 kts | 320° |
| 2026-05-07 20:30 | 43.68941 | 1.29984 | 3587 ft | 214 kts | 320° |
| 2026-05-07 20:30 | 43.70169 | 1.28650 | 3896 ft | 236 kts | 321° |
| 2026-05-07 20:30 | 43.71543 | 1.27255 | 4336 ft | 252 kts | 327° |
| 2026-05-07 20:31 | 43.73189 | 1.26351 | 5006 ft | 258 kts | 343° |
| 2026-05-07 20:31 | 43.74947 | 1.25751 | 5731 ft | 262 kts | 345° |
| 2026-05-07 20:31 | 43.76740 | 1.25213 | 6454 ft | 266 kts | 348° |
| 2026-05-07 20:31 | 43.78598 | 1.24995 | 7129 ft | 270 kts | 355° |
| 2026-05-07 20:32 | 43.80466 | 1.24932 | 7808 ft | 274 kts | 356° |
| 2026-05-07 20:32 | 43.82382 | 1.24882 | 8514 ft | 277 kts | 356° |
| 2026-05-07 20:32 | 43.84323 | 1.24827 | 9228 ft | 280 kts | 356° |
| 2026-05-07 20:32 | 43.86283 | 1.24767 | 9935 ft | 284 kts | 356° |
| 2026-05-07 20:33 | 43.88286 | 1.24702 | 10413 ft | 295 kts | 356° |
| 2026-05-07 20:33 | 43.90392 | 1.24629 | 10689 ft | 311 kts | 356° |
| 2026-05-07 20:33 | 43.92613 | 1.24552 | 10953 ft | 327 kts | 356° |
| 2026-05-07 20:33 | 43.94940 | 1.24473 | 11275 ft | 340 kts | 356° |
| 2026-05-07 20:34 | 43.97324 | 1.24393 | 11784 ft | 345 kts | 356° |
| 2026-05-07 20:34 | 43.99706 | 1.24314 | 12343 ft | 349 kts | 356° |
| 2026-05-07 20:34 | 44.02145 | 1.24233 | 12917 ft | 352 kts | 356° |
| 2026-05-07 20:34 | 44.04611 | 1.24149 | 13466 ft | 356 kts | 357° |
| 2026-05-07 20:35 | 44.07098 | 1.24065 | 13964 ft | 360 kts | 357° |
| 2026-05-07 20:35 | 44.09611 | 1.23979 | 14463 ft | 362 kts | 357° |
| 2026-05-07 20:35 | 44.12141 | 1.23893 | 14989 ft | 365 kts | 357° |
| 2026-05-07 20:35 | 44.14685 | 1.23806 | 15512 ft | 367 kts | 357° |
| 2026-05-07 20:36 | 44.17247 | 1.23719 | 16036 ft | 369 kts | 357° |
| 2026-05-07 20:36 | 44.19825 | 1.23630 | 16557 ft | 372 kts | 357° |
| 2026-05-07 20:36 | 44.22421 | 1.23541 | 17072 ft | 374 kts | 357° |
| 2026-05-07 20:36 | 44.25001 | 1.23457 | 17551 ft | 378 kts | 357° |
| 2026-05-07 20:37 | 44.27641 | 1.23365 | 18057 ft | 381 kts | 357° |
| 2026-05-07 20:37 | 44.30297 | 1.23272 | 18531 ft | 383 kts | 357° |
| 2026-05-07 20:37 | 44.32967 | 1.23179 | 18993 ft | 385 kts | 357° |
| 2026-05-07 20:37 | 44.35648 | 1.23086 | 19456 ft | 386 kts | 357° |
| 2026-05-07 20:38 | 44.38340 | 1.22993 | 19922 ft | 388 kts | 357° |
| 2026-05-07 20:38 | 44.41041 | 1.22900 | 20374 ft | 389 kts | 356° |
| 2026-05-07 20:38 | 44.43754 | 1.22799 | 20841 ft | 391 kts | 356° |
| 2026-05-07 20:38 | 44.46457 | 1.22416 | 21290 ft | 390 kts | 347° |
| 2026-05-07 20:39 | 44.49069 | 1.21590 | 21745 ft | 391 kts | 343° |
| 2026-05-07 20:39 | 44.51687 | 1.20568 | 22192 ft | 392 kts | 342° |
| 2026-05-07 20:39 | 44.54302 | 1.19447 | 22642 ft | 393 kts | 341° |
| 2026-05-07 20:39 | 44.56916 | 1.18292 | 23089 ft | 395 kts | 341° |
| 2026-05-07 20:40 | 44.59538 | 1.17131 | 23532 ft | 396 kts | 341° |
| 2026-05-07 20:40 | 44.62176 | 1.15976 | 23900 ft | 398 kts | 341° |
| 2026-05-07 20:40 | 44.64835 | 1.14826 | 24222 ft | 401 kts | 341° |
| 2026-05-07 20:40 | 44.67510 | 1.13679 | 24544 ft | 404 kts | 341° |
| 2026-05-07 20:41 | 44.70208 | 1.12530 | 24859 ft | 406 kts | 341° |
| 2026-05-07 20:41 | 44.72920 | 1.11377 | 25219 ft | 408 kts | 341° |
| 2026-05-07 20:41 | 44.75611 | 1.10234 | 25580 ft | 411 kts | 341° |
| 2026-05-07 20:41 | 44.78353 | 1.09067 | 25950 ft | 413 kts | 341° |
| 2026-05-07 20:42 | 44.81111 | 1.07893 | 26349 ft | 415 kts | 341° |
| 2026-05-07 20:42 | 44.83882 | 1.06710 | 26739 ft | 418 kts | 341° |
| 2026-05-07 20:42 | 44.86671 | 1.05518 | 27152 ft | 420 kts | 340° |
| 2026-05-07 20:42 | 44.89481 | 1.04316 | 27571 ft | 423 kts | 340° |
| 2026-05-07 20:43 | 44.92305 | 1.03106 | 28020 ft | 426 kts | 340° |
| 2026-05-07 20:43 | 44.95150 | 1.01887 | 28485 ft | 429 kts | 340° |
| 2026-05-07 20:43 | 44.98015 | 1.00657 | 28919 ft | 432 kts | 340° |
| 2026-05-07 20:43 | 45.00795 | 0.99462 | 29367 ft | 434 kts | 340° |
| 2026-05-07 20:44 | 45.03694 | 0.98215 | 29820 ft | 437 kts | 340° |
| 2026-05-07 20:44 | 45.06614 | 0.96957 | 30223 ft | 440 kts | 340° |
| 2026-05-07 20:44 | 45.09554 | 0.95690 | 30598 ft | 443 kts | 340° |
| 2026-05-07 20:44 | 45.12511 | 0.94415 | 30974 ft | 446 kts | 340° |
| 2026-05-07 20:45 | 45.15491 | 0.93128 | 31341 ft | 449 kts | 340° |
| 2026-05-07 20:45 | 45.18487 | 0.91833 | 31715 ft | 451 kts | 340° |
| 2026-05-07 20:45 | 45.21497 | 0.90531 | 32078 ft | 454 kts | 341° |
| 2026-05-07 20:45 | 45.24438 | 0.89257 | 32429 ft | 456 kts | 341° |
| 2026-05-07 20:46 | 45.27440 | 0.87955 | 32745 ft | 459 kts | 341° |
| 2026-05-07 20:46 | 45.30504 | 0.86625 | 33083 ft | 461 kts | 341° |
| 2026-05-07 20:46 | 45.33585 | 0.85285 | 33393 ft | 464 kts | 341° |
| 2026-05-07 20:46 | 45.36675 | 0.83940 | 33685 ft | 466 kts | 341° |
| 2026-05-07 20:47 | 45.39790 | 0.82582 | 33949 ft | 469 kts | 341° |
| 2026-05-07 20:47 | 45.42870 | 0.81241 | 33989 ft | 456 kts | 341° |
| 2026-05-07 20:47 | 45.45876 | 0.79931 | 33991 ft | 449 kts | 341° |
| 2026-05-07 20:48 | 45.51829 | 0.77326 | 33994 ft | 447 kts | 341° |
| 2026-05-07 20:48 | 45.57723 | 0.74738 | 34003 ft | 446 kts | 341° |
| 2026-05-07 20:49 | 45.63649 | 0.72133 | 33996 ft | 445 kts | 341° |
| 2026-05-07 20:49 | 45.69559 | 0.69528 | 34002 ft | 444 kts | 341° |
| 2026-05-07 20:50 | 45.75469 | 0.66919 | 33995 ft | 444 kts | 341° |
| 2026-05-07 20:50 | 45.81377 | 0.64306 | 33993 ft | 444 kts | 341° |
| 2026-05-07 20:51 | 45.87234 | 0.61709 | 33999 ft | 444 kts | 341° |
| 2026-05-07 20:51 | 45.93130 | 0.59089 | 33998 ft | 443 kts | 341° |
| 2026-05-07 20:52 | 45.99021 | 0.56465 | 34007 ft | 443 kts | 341° |
| 2026-05-07 20:52 | 46.04911 | 0.53837 | 34002 ft | 443 kts | 341° |
| 2026-05-07 20:53 | 46.10756 | 0.51222 | 34004 ft | 443 kts | 341° |
| 2026-05-07 20:53 | 46.16642 | 0.48583 | 34000 ft | 443 kts | 341° |
| 2026-05-07 20:54 | 46.22521 | 0.45941 | 34009 ft | 442 kts | 341° |
| 2026-05-07 20:54 | 46.28399 | 0.43295 | 34010 ft | 442 kts | 341° |
| 2026-05-07 20:55 | 46.34274 | 0.40642 | 34010 ft | 442 kts | 341° |
| 2026-05-07 20:55 | 46.40157 | 0.37981 | 34008 ft | 444 kts | 341° |
| 2026-05-07 20:56 | 46.46018 | 0.35323 | 33998 ft | 445 kts | 341° |
| 2026-05-07 20:56 | 46.51922 | 0.32640 | 33994 ft | 445 kts | 341° |
| 2026-05-07 20:57 | 46.57989 | 0.30876 | 33994 ft | 447 kts | 355° |
| 2026-05-07 20:57 | 46.64209 | 0.31656 | 33997 ft | 451 kts | 8° |
| 2026-05-07 20:58 | 46.70332 | 0.33440 | 33995 ft | 452 kts | 10° |
| 2026-05-07 20:58 | 46.76478 | 0.35394 | 33999 ft | 452 kts | 10° |
| 2026-05-07 20:59 | 46.82631 | 0.37335 | 34003 ft | 452 kts | 10° |
| 2026-05-07 20:59 | 46.88785 | 0.39246 | 34006 ft | 452 kts | 10° |
| 2026-05-07 21:00 | 46.93705 | 0.40767 | 34011 ft | 452 kts | 10° |
| 2026-05-07 21:00 | 46.99479 | 0.42554 | 34012 ft | 449 kts | 10° |
| 2026-05-07 21:01 | 47.03731 | 0.43873 | 34011 ft | 448 kts | 10° |
| 2026-05-07 21:01 | 47.08860 | 0.44647 | 34009 ft | 445 kts | 357° |
| 2026-05-07 21:02 | 47.15002 | 0.43648 | 34011 ft | 444 kts | 350° |
| 2026-05-07 21:02 | 47.22086 | 0.41936 | 34008 ft | 444 kts | 349° |
| 2026-05-07 21:03 | 47.27243 | 0.40632 | 33695 ft | 460 kts | 349° |
| 2026-05-07 21:03 | 47.30405 | 0.39838 | 33527 ft | 474 kts | 349° |
| 2026-05-07 21:03 | 47.33676 | 0.39026 | 33302 ft | 478 kts | 349° |
| 2026-05-07 21:03 | 47.36938 | 0.38223 | 32584 ft | 475 kts | 349° |
| 2026-05-07 21:04 | 47.40199 | 0.37424 | 31772 ft | 475 kts | 349° |
| 2026-05-07 21:04 | 47.43444 | 0.36630 | 31172 ft | 470 kts | 349° |
| 2026-05-07 21:04 | 47.46647 | 0.35846 | 30573 ft | 465 kts | 349° |
| 2026-05-07 21:04 | 47.49827 | 0.35067 | 29953 ft | 461 kts | 349° |
| 2026-05-07 21:05 | 47.52978 | 0.34286 | 29294 ft | 457 kts | 349° |
| 2026-05-07 21:05 | 47.56096 | 0.33511 | 28699 ft | 451 kts | 349° |
| 2026-05-07 21:05 | 47.59173 | 0.32746 | 28081 ft | 446 kts | 349° |
| 2026-05-07 21:05 | 47.62218 | 0.31988 | 27518 ft | 441 kts | 349° |
| 2026-05-07 21:06 | 47.65195 | 0.31247 | 26937 ft | 437 kts | 349° |
| 2026-05-07 21:06 | 47.68180 | 0.30503 | 26377 ft | 433 kts | 349° |
| 2026-05-07 21:06 | 47.71128 | 0.29767 | 25810 ft | 429 kts | 349° |
| 2026-05-07 21:06 | 47.74061 | 0.29034 | 25238 ft | 425 kts | 348° |
| 2026-05-07 21:07 | 47.76984 | 0.28445 | 24667 ft | 423 kts | 354° |
| 2026-05-07 21:07 | 47.79916 | 0.28662 | 24091 ft | 423 kts | 8° |
| 2026-05-07 21:07 | 47.82723 | 0.29977 | 23722 ft | 428 kts | 23° |
| 2026-05-07 21:07 | 47.85317 | 0.32234 | 23374 ft | 435 kts | 32° |
| 2026-05-07 21:08 | 47.87778 | 0.34788 | 23138 ft | 425 kts | 33° |
| 2026-05-07 21:08 | 47.90123 | 0.37270 | 22885 ft | 413 kts | 33° |
| 2026-05-07 21:08 | 47.92431 | 0.39710 | 22602 ft | 402 kts | 33° |
| 2026-05-07 21:08 | 47.94684 | 0.42084 | 22273 ft | 392 kts | 33° |
| 2026-05-07 21:09 | 47.96903 | 0.44414 | 21824 ft | 388 kts | 33° |
| 2026-05-07 21:09 | 47.99102 | 0.46726 | 21483 ft | 386 kts | 33° |
| 2026-05-07 21:09 | 48.01293 | 0.49031 | 21184 ft | 385 kts | 33° |
| 2026-05-07 21:09 | 48.03473 | 0.51326 | 20881 ft | 383 kts | 33° |
| 2026-05-07 21:10 | 48.05647 | 0.53616 | 20583 ft | 381 kts | 33° |
| 2026-05-07 21:10 | 48.07807 | 0.55893 | 20303 ft | 380 kts | 33° |
| 2026-05-07 21:10 | 48.09960 | 0.58165 | 19990 ft | 378 kts | 33° |
| 2026-05-07 21:10 | 48.12103 | 0.60430 | 19702 ft | 376 kts | 33° |
| 2026-05-07 21:11 | 48.14208 | 0.62655 | 19423 ft | 375 kts | 33° |
| 2026-05-07 21:11 | 48.16333 | 0.64904 | 19118 ft | 373 kts | 33° |
| 2026-05-07 21:11 | 48.20555 | 0.69381 | 18548 ft | 370 kts | 33° |
| 2026-05-07 21:12 | 48.22650 | 0.71606 | 18268 ft | 369 kts | 33° |
| 2026-05-07 21:12 | 48.24740 | 0.73827 | 17940 ft | 367 kts | 33° |
| 2026-05-07 21:12 | 48.26822 | 0.76041 | 17651 ft | 366 kts | 33° |
| 2026-05-07 21:12 | 48.28893 | 0.78246 | 17355 ft | 364 kts | 33° |
| 2026-05-07 21:13 | 48.30956 | 0.80446 | 17090 ft | 363 kts | 33° |
| 2026-05-07 21:13 | 48.32979 | 0.82623 | 16806 ft | 362 kts | 35° |
| 2026-05-07 21:13 | 48.34797 | 0.85235 | 16526 ft | 363 kts | 51° |
| 2026-05-07 21:13 | 48.36124 | 0.88457 | 16241 ft | 362 kts | 60° |
| 2026-05-07 21:14 | 48.37287 | 0.91806 | 15975 ft | 361 kts | 62° |
| 2026-05-07 21:14 | 48.38430 | 0.95156 | 15694 ft | 359 kts | 62° |
| 2026-05-07 21:14 | 48.39573 | 0.98491 | 15415 ft | 358 kts | 62° |
| 2026-05-07 21:14 | 48.40715 | 1.01814 | 15141 ft | 356 kts | 62° |
| 2026-05-07 21:15 | 48.41855 | 1.05119 | 14814 ft | 355 kts | 61° |
| 2026-05-07 21:15 | 48.42989 | 1.08412 | 14472 ft | 353 kts | 62° |
| 2026-05-07 21:15 | 48.44114 | 1.11687 | 14148 ft | 352 kts | 62° |
| 2026-05-07 21:15 | 48.45235 | 1.14956 | 13806 ft | 350 kts | 62° |
| 2026-05-07 21:16 | 48.46350 | 1.18207 | 13502 ft | 346 kts | 62° |
| 2026-05-07 21:16 | 48.47420 | 1.21331 | 13302 ft | 334 kts | 62° |
| 2026-05-07 21:16 | 48.48465 | 1.24384 | 13069 ft | 322 kts | 62° |
| 2026-05-07 21:16 | 48.49479 | 1.27350 | 12790 ft | 315 kts | 62° |
| 2026-05-07 21:17 | 48.50470 | 1.30251 | 12490 ft | 308 kts | 62° |
| 2026-05-07 21:17 | 48.51447 | 1.33111 | 12216 ft | 305 kts | 62° |
| 2026-05-07 21:17 | 48.52420 | 1.35940 | 11873 ft | 303 kts | 62° |
| 2026-05-07 21:17 | 48.53389 | 1.38758 | 11657 ft | 302 kts | 62° |
| 2026-05-07 21:18 | 48.54352 | 1.41568 | 11498 ft | 301 kts | 62° |
| 2026-05-07 21:18 | 48.55312 | 1.44370 | 11344 ft | 300 kts | 62° |
| 2026-05-07 21:18 | 48.56257 | 1.47129 | 11173 ft | 300 kts | 62° |
| 2026-05-07 21:18 | 48.57356 | 1.49785 | 11024 ft | 298 kts | 49° |
| 2026-05-07 21:19 | 48.58963 | 1.51717 | 10810 ft | 295 kts | 28° |
| 2026-05-07 21:19 | 48.60783 | 1.53129 | 10400 ft | 293 kts | 24° |
| 2026-05-07 21:19 | 48.62620 | 1.54450 | 10100 ft | 291 kts | 24° |
| 2026-05-07 21:19 | 48.64452 | 1.55772 | 10009 ft | 292 kts | 25° |
| 2026-05-07 21:20 | 48.66206 | 1.57323 | 9998 ft | 293 kts | 37° |
| 2026-05-07 21:20 | 48.67683 | 1.59439 | 9999 ft | 293 kts | 45° |
| 2026-05-07 21:20 | 48.69075 | 1.61696 | 9998 ft | 293 kts | 46° |
| 2026-05-07 21:20 | 48.70437 | 1.63934 | 9999 ft | 293 kts | 46° |
| 2026-05-07 21:21 | 48.71818 | 1.66210 | 9998 ft | 293 kts | 46° |
| 2026-05-07 21:21 | 48.73197 | 1.68483 | 10001 ft | 293 kts | 46° |
| 2026-05-07 21:21 | 48.74576 | 1.70759 | 9994 ft | 293 kts | 46° |
| 2026-05-07 21:21 | 48.75942 | 1.73012 | 9620 ft | 289 kts | 46° |
| 2026-05-07 21:22 | 48.77302 | 1.75261 | 9141 ft | 289 kts | 46° |
| 2026-05-07 21:22 | 48.78658 | 1.77506 | 8680 ft | 288 kts | 46° |
| 2026-05-07 21:22 | 48.80003 | 1.79732 | 8280 ft | 285 kts | 46° |
| 2026-05-07 21:22 | 48.81337 | 1.81938 | 7897 ft | 282 kts | 46° |
| 2026-05-07 21:23 | 48.82658 | 1.84122 | 7488 ft | 280 kts | 46° |
| 2026-05-07 21:23 | 48.83952 | 1.86263 | 7111 ft | 277 kts | 46° |
| 2026-05-07 21:23 | 48.85248 | 1.88407 | 6729 ft | 275 kts | 46° |
| 2026-05-07 21:23 | 48.86532 | 1.90537 | 6347 ft | 272 kts | 47° |
| 2026-05-07 21:24 | 48.87802 | 1.92639 | 5946 ft | 269 kts | 47° |
| 2026-05-07 21:24 | 48.89066 | 1.94721 | 5542 ft | 267 kts | 46° |
| 2026-05-07 21:24 | 48.90272 | 1.96797 | 5348 ft | 257 kts | 51° |
| 2026-05-07 21:24 | 48.91353 | 1.98883 | 5177 ft | 246 kts | 52° |
| 2026-05-07 21:25 | 48.92349 | 2.00839 | 5023 ft | 237 kts | 52° |
| 2026-05-07 21:25 | 48.93337 | 2.02787 | 4939 ft | 231 kts | 52° |
| 2026-05-07 21:25 | 48.94311 | 2.04732 | 4932 ft | 231 kts | 54° |
| 2026-05-07 21:25 | 48.95196 | 2.06777 | 4934 ft | 231 kts | 57° |
| 2026-05-07 21:26 | 48.96015 | 2.08842 | 4932 ft | 231 kts | 61° |
| 2026-05-07 21:26 | 48.96622 | 2.11110 | 4936 ft | 232 kts | 73° |
| 2026-05-07 21:26 | 48.96945 | 2.13436 | 4919 ft | 217 kts | 81° |
| 2026-05-07 21:26 | 48.97096 | 2.15642 | 4940 ft | 203 kts | 84° |
| 2026-05-07 21:27 | 48.97204 | 2.17760 | 4941 ft | 200 kts | 84° |
| 2026-05-07 21:27 | 48.97313 | 2.19874 | 4933 ft | 200 kts | 84° |
| 2026-05-07 21:27 | 48.97428 | 2.21995 | 4918 ft | 202 kts | 84° |
| 2026-05-07 21:27 | 48.97554 | 2.24123 | 4726 ft | 202 kts | 84° |
| 2026-05-07 21:28 | 48.97670 | 2.26246 | 4441 ft | 201 kts | 84° |
| 2026-05-07 21:28 | 48.97781 | 2.28363 | 4111 ft | 200 kts | 84° |
| 2026-05-07 21:28 | 48.97894 | 2.30470 | 3816 ft | 199 kts | 84° |
| 2026-05-07 21:28 | 48.98004 | 2.32534 | 3537 ft | 197 kts | 84° |
| 2026-05-07 21:29 | 48.98115 | 2.34611 | 3270 ft | 196 kts | 84° |
| 2026-05-07 21:29 | 48.98226 | 2.36670 | 3002 ft | 195 kts | 84° |
| 2026-05-07 21:29 | 48.98336 | 2.38726 | 2733 ft | 194 kts | 84° |
| 2026-05-07 21:29 | 48.98445 | 2.40765 | 2469 ft | 193 kts | 84° |
| 2026-05-07 21:30 | 48.98552 | 2.42772 | 2211 ft | 186 kts | 84° |
| 2026-05-07 21:30 | 48.98653 | 2.44667 | 1950 ft | 174 kts | 83° |
| 2026-05-07 21:30 | 48.98748 | 2.46437 | 1730 ft | 162 kts | 83° |
| 2026-05-07 21:30 | 48.98837 | 2.48093 | 1492 ft | 151 kts | 83° |
| 2026-05-07 21:31 | 48.98919 | 2.49622 | 1302 ft | 139 kts | 83° |
| 2026-05-07 21:31 | 48.98998 | 2.51043 | 1103 ft | 132 kts | 83° |
| 2026-05-07 21:31 | 48.99070 | 2.52437 | 917 ft | 133 kts | 83° |
| 2026-05-07 21:31 | 48.99150 | 2.53843 | 733 ft | 133 kts | 83° |
| 2026-05-07 21:32 | 48.99222 | 2.55231 | 562 ft | 133 kts | 84° |
| 2026-05-07 21:32 | 48.99296 | 2.56644 | 389 ft | 134 kts | 83° |
| 2026-05-07 21:32 | 48.99371 | 2.58001 | 366 ft | 118 kts | 85° |
| 2026-05-07 21:32 | 48.99411 | 2.58832 | 364 ft | 41 kts | 85° |
| 2026-05-07 21:33 | 48.99467 | 2.59240 | 357 ft | 39 kts | 69° |
| 2026-05-07 21:33 | 48.99566 | 2.59573 | 366 ft | 28 kts | 64° |
| 2026-05-07 21:33 | 48.99634 | 2.59683 | 369 ft | 10 kts | 15° |
| 2026-05-07 21:33 | 48.99669 | 2.59685 | 363 ft | 0 kts | 358° |
| 2026-05-07 21:34 | 48.99670 | 2.59685 | 363 ft | 1 kts | 358° |
| 2026-05-07 21:35 | 48.99716 | 2.59682 | 366 ft | 10 kts | 356° |
| 2026-05-07 21:35 | 48.99804 | 2.59673 | 364 ft | 15 kts | 355° |
| 2026-05-07 21:35 | 48.99915 | 2.59660 | 369 ft | 16 kts | 355° |
| 2026-05-07 21:35 | 49.00029 | 2.59644 | 366 ft | 14 kts | 349° |
| 2026-05-07 21:36 | 49.00078 | 2.59584 | 369 ft | 8 kts | 291° |
| 2026-05-07 21:36 | 49.00075 | 2.59487 | 368 ft | 11 kts | 263° |
| 2026-05-07 21:36 | 49.00066 | 2.59353 | 365 ft | 14 kts | 265° |
| 2026-05-07 21:36 | 49.00057 | 2.59185 | 364 ft | 17 kts | 265° |
| 2026-05-07 21:37 | 49.00046 | 2.58990 | 367 ft | 20 kts | 265° |
| 2026-05-07 21:37 | 49.00034 | 2.58763 | 360 ft | 22 kts | 265° |
| 2026-05-07 21:37 | 49.00022 | 2.58528 | 367 ft | 23 kts | 265° |
| 2026-05-07 21:37 | 49.00026 | 2.58359 | 362 ft | 13 kts | 299° |
| 2026-05-07 21:38 | 49.00084 | 2.58281 | 369 ft | 10 kts | 294° |
| 2026-05-07 21:38 | 49.00084 | 2.58162 | 365 ft | 13 kts | 266° |
| 2026-05-07 21:38 | 49.00078 | 2.58031 | 364 ft | 13 kts | 265° |
| 2026-05-07 21:38 | 49.00087 | 2.57945 | 367 ft | 8 kts | 307° |
| 2026-05-07 21:39 | 49.00131 | 2.57922 | 367 ft | 4 kts | 353° |
| 2026-05-07 21:39 | 49.00145 | 2.57919 | 367 ft | 0 kts | 353° |
| 2026-05-07 21:39 | 49.00146 | 2.57919 | 367 ft | 0 kts | 353° |